sensor_id;sensor_type;location;lat;lon;timestamp;temperature;humidity
19665;DHT22;9980;51.020;7.772;2022-09-03T00:00:18;13.60;69.30
19665;DHT22;9980;51.020;7.772;2022-09-03T00:03:15;13.60;69.30
19665;DHT22;9980;51.020;7.772;2022-09-03T00:05:55;13.50;70.30
19665;DHT22;9980;51.020;7.772;2022-09-03T00:09:02;13.50;70.60
19665;DHT22;9980;51.020;7.772;2022-09-03T00:17:14;13.40;70.10
19665;DHT22;9980;51.020;7.772;2022-09-03T00:19:52;13.30;70.90
19665;DHT22;9980;51.020;7.772;2022-09-03T00:22:29;13.30;70.70
19665;DHT22;9980;51.020;7.772;2022-09-03T00:25:03;13.30;71.00
19665;DHT22;9980;51.020;7.772;2022-09-03T00:27:37;13.30;71.60
19665;DHT22;9980;51.020;7.772;2022-09-03T00:30:13;13.20;71.50
19665;DHT22;9980;51.020;7.772;2022-09-03T00:33:09;13.20;71.50
19665;DHT22;9980;51.020;7.772;2022-09-03T00:36:34;13.20;72.10
19665;DHT22;9980;51.020;7.772;2022-09-03T00:38:44;13.20;72.00
19665;DHT22;9980;51.020;7.772;2022-09-03T00:50:35;13.00;72.60
19665;DHT22;9980;51.020;7.772;2022-09-03T00:59:32;12.90;72.60
19665;DHT22;9980;51.020;7.772;2022-09-03T01:02:31;12.90;72.60
19665;DHT22;9980;51.020;7.772;2022-09-03T01:05:54;12.90;73.10
19665;DHT22;9980;51.020;7.772;2022-09-03T01:08:51;12.80;73.40
19665;DHT22;9980;51.020;7.772;2022-09-03T01:12:17;12.80;73.30
19665;DHT22;9980;51.020;7.772;2022-09-03T01:15:31;12.80;73.80
19665;DHT22;9980;51.020;7.772;2022-09-03T01:27:45;12.70;73.00
19665;DHT22;9980;51.020;7.772;2022-09-03T01:30:29;12.60;73.50
19665;DHT22;9980;51.020;7.772;2022-09-03T01:36:09;12.60;74.10
19665;DHT22;9980;51.020;7.772;2022-09-03T01:39:04;12.60;74.30
19665;DHT22;9980;51.020;7.772;2022-09-03T01:45:11;12.50;74.50
19665;DHT22;9980;51.020;7.772;2022-09-03T01:48:01;12.50;74.30
19665;DHT22;9980;51.020;7.772;2022-09-03T01:53:27;12.50;74.20
19665;DHT22;9980;51.020;7.772;2022-09-03T01:59:14;12.40;75.70
19665;DHT22;9980;51.020;7.772;2022-09-03T02:02:16;12.40;75.30
19665;DHT22;9980;51.020;7.772;2022-09-03T02:07:45;12.30;75.00
19665;DHT22;9980;51.020;7.772;2022-09-03T02:15:47;12.30;75.10
19665;DHT22;9980;51.020;7.772;2022-09-03T02:18:23;12.30;75.40
19665;DHT22;9980;51.020;7.772;2022-09-03T02:20:53;12.20;75.50
19665;DHT22;9980;51.020;7.772;2022-09-03T02:23:22;12.20;75.80
19665;DHT22;9980;51.020;7.772;2022-09-03T02:26:00;12.20;75.30
19665;DHT22;9980;51.020;7.772;2022-09-03T02:28:29;12.20;77.10
19665;DHT22;9980;51.020;7.772;2022-09-03T02:30:58;12.20;76.50
19665;DHT22;9980;51.020;7.772;2022-09-03T02:33:25;12.10;76.50
19665;DHT22;9980;51.020;7.772;2022-09-03T02:35:53;12.10;76.40
19665;DHT22;9980;51.020;7.772;2022-09-03T02:38:24;12.10;76.80
19665;DHT22;9980;51.020;7.772;2022-09-03T02:40:52;12.10;77.10
19665;DHT22;9980;51.020;7.772;2022-09-03T02:44:41;12.10;76.80
19665;DHT22;9980;51.020;7.772;2022-09-03T02:46:43;12.00;77.80
19665;DHT22;9980;51.020;7.772;2022-09-03T02:49:14;12.10;78.20
19665;DHT22;9980;51.020;7.772;2022-09-03T02:51:42;12.00;77.50
19665;DHT22;9980;51.020;7.772;2022-09-03T02:54:11;12.00;77.80
19665;DHT22;9980;51.020;7.772;2022-09-03T02:56:44;12.00;77.80
19665;DHT22;9980;51.020;7.772;2022-09-03T02:59:13;12.00;78.80
19665;DHT22;9980;51.020;7.772;2022-09-03T03:01:40;12.00;78.90
19665;DHT22;9980;51.020;7.772;2022-09-03T03:04:11;11.90;77.80
19665;DHT22;9980;51.020;7.772;2022-09-03T03:06:42;11.90;78.10
19665;DHT22;9980;51.020;7.772;2022-09-03T03:09:13;11.90;77.80
19665;DHT22;9980;51.020;7.772;2022-09-03T03:11:40;11.90;77.50
19665;DHT22;9980;51.020;7.772;2022-09-03T03:14:07;11.90;77.00
19665;DHT22;9980;51.020;7.772;2022-09-03T03:16:34;11.90;77.50
19665;DHT22;9980;51.020;7.772;2022-09-03T03:19:01;11.90;78.00
19665;DHT22;9980;51.020;7.772;2022-09-03T03:21:28;11.90;78.60
19665;DHT22;9980;51.020;7.772;2022-09-03T03:23:56;11.90;78.50
19665;DHT22;9980;51.020;7.772;2022-09-03T03:26:23;11.90;78.90
19665;DHT22;9980;51.020;7.772;2022-09-03T03:28:55;11.80;78.50
19665;DHT22;9980;51.020;7.772;2022-09-03T03:31:24;11.80;78.80
19665;DHT22;9980;51.020;7.772;2022-09-03T03:33:55;11.80;78.40
19665;DHT22;9980;51.020;7.772;2022-09-03T03:36:25;11.80;78.50
19665;DHT22;9980;51.020;7.772;2022-09-03T03:38:56;11.80;78.70
19665;DHT22;9980;51.020;7.772;2022-09-03T03:41:27;11.80;78.30
19665;DHT22;9980;51.020;7.772;2022-09-03T03:44:04;11.80;79.10
19665;DHT22;9980;51.020;7.772;2022-09-03T03:46:35;11.80;78.30
19665;DHT22;9980;51.020;7.772;2022-09-03T03:49:04;11.80;78.50
19665;DHT22;9980;51.020;7.772;2022-09-03T03:51:35;11.80;77.90
19665;DHT22;9980;51.020;7.772;2022-09-03T03:54:04;11.80;77.90
19665;DHT22;9980;51.020;7.772;2022-09-03T03:56:31;11.80;78.20
19665;DHT22;9980;51.020;7.772;2022-09-03T03:58:59;11.70;78.70
19665;DHT22;9980;51.020;7.772;2022-09-03T04:01:27;11.70;78.70
19665;DHT22;9980;51.020;7.772;2022-09-03T04:03:56;11.70;79.10
19665;DHT22;9980;51.020;7.772;2022-09-03T04:06:24;11.70;79.10
19665;DHT22;9980;51.020;7.772;2022-09-03T04:08:51;11.70;79.10
19665;DHT22;9980;51.020;7.772;2022-09-03T04:11:21;11.70;79.70
19665;DHT22;9980;51.020;7.772;2022-09-03T04:13:50;11.70;80.10
19665;DHT22;9980;51.020;7.772;2022-09-03T04:16:21;11.70;79.50
19665;DHT22;9980;51.020;7.772;2022-09-03T04:18:49;11.70;79.80
19665;DHT22;9980;51.020;7.772;2022-09-03T04:21:19;11.70;79.80
19665;DHT22;9980;51.020;7.772;2022-09-03T04:23:50;11.70;80.50
19665;DHT22;9980;51.020;7.772;2022-09-03T04:26:23;11.70;81.40
19665;DHT22;9980;51.020;7.772;2022-09-03T04:28:54;11.70;81.10
19665;DHT22;9980;51.020;7.772;2022-09-03T04:31:21;11.60;80.30
19665;DHT22;9980;51.020;7.772;2022-09-03T04:33:48;11.60;80.50
19665;DHT22;9980;51.020;7.772;2022-09-03T04:36:21;11.60;80.60
19665;DHT22;9980;51.020;7.772;2022-09-03T04:38:52;11.60;81.10
19665;DHT22;9980;51.020;7.772;2022-09-03T04:41:25;11.70;81.50
19665;DHT22;9980;51.020;7.772;2022-09-03T04:43:55;11.60;81.40
19665;DHT22;9980;51.020;7.772;2022-09-03T04:46:26;11.60;80.80
19665;DHT22;9980;51.020;7.772;2022-09-03T04:48:59;11.60;81.30
19665;DHT22;9980;51.020;7.772;2022-09-03T04:51:27;11.60;80.80
19665;DHT22;9980;51.020;7.772;2022-09-03T04:53:57;11.60;81.20
19665;DHT22;9980;51.020;7.772;2022-09-03T04:56:28;11.60;81.80
19665;DHT22;9980;51.020;7.772;2022-09-03T04:59:05;11.60;81.90
19665;DHT22;9980;51.020;7.772;2022-09-03T05:01:36;11.60;81.90
19665;DHT22;9980;51.020;7.772;2022-09-03T05:04:05;11.60;81.50
19665;DHT22;9980;51.020;7.772;2022-09-03T05:06:33;11.60;81.90
19665;DHT22;9980;51.020;7.772;2022-09-03T05:09:03;11.60;83.00
19665;DHT22;9980;51.020;7.772;2022-09-03T05:11:31;11.60;82.80
19665;DHT22;9980;51.020;7.772;2022-09-03T05:13:58;11.60;82.80
19665;DHT22;9980;51.020;7.772;2022-09-03T05:16:27;11.60;83.10
19665;DHT22;9980;51.020;7.772;2022-09-03T05:18:58;11.60;83.80
19665;DHT22;9980;51.020;7.772;2022-09-03T05:21:27;11.70;83.90
19665;DHT22;9980;51.020;7.772;2022-09-03T05:23:55;11.70;83.60
19665;DHT22;9980;51.020;7.772;2022-09-03T05:26:27;11.70;83.50
19665;DHT22;9980;51.020;7.772;2022-09-03T05:28:58;11.70;83.20
19665;DHT22;9980;51.020;7.772;2022-09-03T05:31:29;11.70;83.50
19665;DHT22;9980;51.020;7.772;2022-09-03T05:34:00;11.70;84.40
19665;DHT22;9980;51.020;7.772;2022-09-03T05:36:34;11.80;84.60
19665;DHT22;9980;51.020;7.772;2022-09-03T05:39:03;11.80;85.00
19665;DHT22;9980;51.020;7.772;2022-09-03T05:41:31;11.90;85.80
19665;DHT22;9980;51.020;7.772;2022-09-03T05:44:00;11.90;85.80
19665;DHT22;9980;51.020;7.772;2022-09-03T05:46:30;12.00;86.60
19665;DHT22;9980;51.020;7.772;2022-09-03T05:49:00;12.00;87.10
19665;DHT22;9980;51.020;7.772;2022-09-03T05:51:28;12.10;88.00
19665;DHT22;9980;51.020;7.772;2022-09-03T05:53:57;12.10;88.10
19665;DHT22;9980;51.020;7.772;2022-09-03T05:56:26;12.20;89.00
19665;DHT22;9980;51.020;7.772;2022-09-03T05:58:57;12.30;89.00
19665;DHT22;9980;51.020;7.772;2022-09-03T06:01:36;12.40;89.90
19665;DHT22;9980;51.020;7.772;2022-09-03T06:04:08;12.50;90.20
19665;DHT22;9980;51.020;7.772;2022-09-03T06:06:38;12.60;90.00
19665;DHT22;9980;51.020;7.772;2022-09-03T06:09:09;12.70;90.30
19665;DHT22;9980;51.020;7.772;2022-09-03T06:11:38;12.90;90.50
19665;DHT22;9980;51.020;7.772;2022-09-03T06:14:08;13.00;90.40
19665;DHT22;9980;51.020;7.772;2022-09-03T06:16:39;13.10;90.70
19665;DHT22;9980;51.020;7.772;2022-09-03T06:19:08;13.30;91.10
19665;DHT22;9980;51.020;7.772;2022-09-03T06:21:38;13.40;91.30
19665;DHT22;9980;51.020;7.772;2022-09-03T06:24:13;13.50;91.30
19665;DHT22;9980;51.020;7.772;2022-09-03T06:26:42;13.70;91.50
19665;DHT22;9980;51.020;7.772;2022-09-03T06:29:10;13.80;91.50
19665;DHT22;9980;51.020;7.772;2022-09-03T06:31:38;14.00;91.40
19665;DHT22;9980;51.020;7.772;2022-09-03T06:34:05;14.10;91.50
19665;DHT22;9980;51.020;7.772;2022-09-03T06:36:33;14.30;91.40
19665;DHT22;9980;51.020;7.772;2022-09-03T06:39:00;14.40;91.60
19665;DHT22;9980;51.020;7.772;2022-09-03T06:41:29;14.60;91.50
19665;DHT22;9980;51.020;7.772;2022-09-03T06:44:04;14.80;91.50
19665;DHT22;9980;51.020;7.772;2022-09-03T06:46:38;15.00;90.90
19665;DHT22;9980;51.020;7.772;2022-09-03T06:49:09;15.20;90.80
19665;DHT22;9980;51.020;7.772;2022-09-03T06:51:37;15.40;90.40
19665;DHT22;9980;51.020;7.772;2022-09-03T06:54:09;15.60;90.10
19665;DHT22;9980;51.020;7.772;2022-09-03T06:56:39;15.80;90.20
19665;DHT22;9980;51.020;7.772;2022-09-03T06:59:09;16.00;89.70
19665;DHT22;9980;51.020;7.772;2022-09-03T07:01:37;16.20;88.40
19665;DHT22;9980;51.020;7.772;2022-09-03T07:04:11;16.40;87.60
19665;DHT22;9980;51.020;7.772;2022-09-03T07:06:42;16.60;86.90
19665;DHT22;9980;51.020;7.772;2022-09-03T07:09:12;16.80;86.00
19665;DHT22;9980;51.020;7.772;2022-09-03T07:11:41;17.00;85.10
19665;DHT22;9980;51.020;7.772;2022-09-03T07:14:18;17.20;84.80
19665;DHT22;9980;51.020;7.772;2022-09-03T07:16:48;17.40;84.60
19665;DHT22;9980;51.020;7.772;2022-09-03T07:19:15;17.60;83.50
19665;DHT22;9980;51.020;7.772;2022-09-03T07:21:43;17.80;83.00
19665;DHT22;9980;51.020;7.772;2022-09-03T07:24:17;18.00;82.30
19665;DHT22;9980;51.020;7.772;2022-09-03T07:26:45;18.20;81.70
19665;DHT22;9980;51.020;7.772;2022-09-03T07:29:14;18.40;81.10
19665;DHT22;9980;51.020;7.772;2022-09-03T07:31:47;18.50;80.60
19665;DHT22;9980;51.020;7.772;2022-09-03T07:34:17;18.70;80.10
19665;DHT22;9980;51.020;7.772;2022-09-03T07:36:47;18.90;79.30
19665;DHT22;9980;51.020;7.772;2022-09-03T07:39:17;19.10;78.50
19665;DHT22;9980;51.020;7.772;2022-09-03T07:41:45;19.20;78.30
19665;DHT22;9980;51.020;7.772;2022-09-03T07:44:14;19.30;78.00
19665;DHT22;9980;51.020;7.772;2022-09-03T07:46:44;19.50;77.20
19665;DHT22;9980;51.020;7.772;2022-09-03T07:49:13;19.60;77.30
19665;DHT22;9980;51.020;7.772;2022-09-03T07:51:40;19.80;76.90
19665;DHT22;9980;51.020;7.772;2022-09-03T07:54:09;19.90;75.70
19665;DHT22;9980;51.020;7.772;2022-09-03T07:56:38;20.10;74.80
19665;DHT22;9980;51.020;7.772;2022-09-03T07:59:08;20.20;74.40
19665;DHT22;9980;51.020;7.772;2022-09-03T08:01:36;20.30;74.10
19665;DHT22;9980;51.020;7.772;2022-09-03T08:04:07;20.50;73.40
19665;DHT22;9980;51.020;7.772;2022-09-03T08:06:36;20.60;73.20
19665;DHT22;9980;51.020;7.772;2022-09-03T08:09:08;20.70;72.70
19665;DHT22;9980;51.020;7.772;2022-09-03T08:11:38;20.90;73.20
19665;DHT22;9980;51.020;7.772;2022-09-03T08:14:10;21.00;72.60
19665;DHT22;9980;51.020;7.772;2022-09-03T08:16:41;21.10;71.30
19665;DHT22;9980;51.020;7.772;2022-09-03T08:19:09;21.20;71.80
19665;DHT22;9980;51.020;7.772;2022-09-03T08:21:39;21.30;71.60
19665;DHT22;9980;51.020;7.772;2022-09-03T08:24:08;21.50;70.40
19665;DHT22;9980;51.020;7.772;2022-09-03T08:26:38;21.60;70.50
19665;DHT22;9980;51.020;7.772;2022-09-03T08:29:17;21.70;69.90
19665;DHT22;9980;51.020;7.772;2022-09-03T08:31:44;21.90;69.50
19665;DHT22;9980;51.020;7.772;2022-09-03T08:34:12;22.00;69.00
19665;DHT22;9980;51.020;7.772;2022-09-03T08:36:40;22.10;68.80
19665;DHT22;9980;51.020;7.772;2022-09-03T08:39:08;22.30;68.90
19665;DHT22;9980;51.020;7.772;2022-09-03T08:47:17;22.70;66.60
19665;DHT22;9980;51.020;7.772;2022-09-03T08:49:51;22.80;65.60
19665;DHT22;9980;51.020;7.772;2022-09-03T08:55:16;23.00;65.30
19665;DHT22;9980;51.020;7.772;2022-09-03T08:57:49;23.00;64.80
19665;DHT22;9980;51.020;7.772;2022-09-03T09:00:18;23.10;64.00
19665;DHT22;9980;51.020;7.772;2022-09-03T09:05:59;23.10;63.50
19665;DHT22;9980;51.020;7.772;2022-09-03T09:11:40;23.30;64.60
19665;DHT22;9980;51.020;7.772;2022-09-03T09:14:32;23.40;63.60
19665;DHT22;9980;51.020;7.772;2022-09-03T09:20:31;23.70;62.30
19665;DHT22;9980;51.020;7.772;2022-09-03T09:23:30;23.80;62.10
19665;DHT22;9980;51.020;7.772;2022-09-03T09:26:06;23.90;61.60
19665;DHT22;9980;51.020;7.772;2022-09-03T09:28:38;24.00;60.60
19665;DHT22;9980;51.020;7.772;2022-09-03T09:31:07;24.00;60.30
19665;DHT22;9980;51.020;7.772;2022-09-03T09:33:41;24.00;59.80
19665;DHT22;9980;51.020;7.772;2022-09-03T09:36:12;24.00;60.10
19665;DHT22;9980;51.020;7.772;2022-09-03T09:38:43;24.00;60.30
19665;DHT22;9980;51.020;7.772;2022-09-03T09:41:15;24.00;60.30
19665;DHT22;9980;51.020;7.772;2022-09-03T09:43:46;24.00;59.90
19665;DHT22;9980;51.020;7.772;2022-09-03T09:46:22;24.00;59.90
19665;DHT22;9980;51.020;7.772;2022-09-03T09:48:54;24.00;60.10
19665;DHT22;9980;51.020;7.772;2022-09-03T09:51:25;24.00;60.30
19665;DHT22;9980;51.020;7.772;2022-09-03T09:54:16;24.00;60.30
19665;DHT22;9980;51.020;7.772;2022-09-03T09:56:56;24.00;60.00
19665;DHT22;9980;51.020;7.772;2022-09-03T09:59:29;24.00;60.10
19665;DHT22;9980;51.020;7.772;2022-09-03T10:02:26;24.10;60.60
19665;DHT22;9980;51.020;7.772;2022-09-03T10:05:00;24.20;61.80
19665;DHT22;9980;51.020;7.772;2022-09-03T10:07:39;24.20;61.60
19665;DHT22;9980;51.020;7.772;2022-09-03T10:10:16;24.30;61.00
19665;DHT22;9980;51.020;7.772;2022-09-03T10:12:55;24.30;61.00
19665;DHT22;9980;51.020;7.772;2022-09-03T10:18:25;24.40;59.60
19665;DHT22;9980;51.020;7.772;2022-09-03T10:21:19;24.40;59.90
19665;DHT22;9980;51.020;7.772;2022-09-03T10:26:58;24.50;59.90
19665;DHT22;9980;51.020;7.772;2022-09-03T10:29:27;24.50;60.00
19665;DHT22;9980;51.020;7.772;2022-09-03T10:32:36;24.50;60.40
19665;DHT22;9980;51.020;7.772;2022-09-03T10:38:14;24.60;60.00
19665;DHT22;9980;51.020;7.772;2022-09-03T10:40:58;24.60;59.80
19665;DHT22;9980;51.020;7.772;2022-09-03T10:44:20;24.60;58.90
19665;DHT22;9980;51.020;7.772;2022-09-03T10:50:55;24.70;60.00
19665;DHT22;9980;51.020;7.772;2022-09-03T10:59:35;24.80;60.20
19665;DHT22;9980;51.020;7.772;2022-09-03T11:05:27;24.90;60.90
19665;DHT22;9980;51.020;7.772;2022-09-03T11:08:15;24.90;59.90
19665;DHT22;9980;51.020;7.772;2022-09-03T11:10:55;25.00;59.60
19665;DHT22;9980;51.020;7.772;2022-09-03T11:13:32;25.10;60.30
19665;DHT22;9980;51.020;7.772;2022-09-03T11:16:12;25.10;60.90
19665;DHT22;9980;51.020;7.772;2022-09-03T11:18:52;25.10;59.90
19665;DHT22;9980;51.020;7.772;2022-09-03T11:21:27;25.30;61.70
19665;DHT22;9980;51.020;7.772;2022-09-03T11:24:14;25.30;60.50
19665;DHT22;9980;51.020;7.772;2022-09-03T11:26:51;25.40;60.10
19665;DHT22;9980;51.020;7.772;2022-09-03T11:29:37;25.40;59.20
19665;DHT22;9980;51.020;7.772;2022-09-03T11:32:19;25.50;60.30
19665;DHT22;9980;51.020;7.772;2022-09-03T11:34:51;25.50;58.80
19665;DHT22;9980;51.020;7.772;2022-09-03T11:37:28;25.50;59.00
19665;DHT22;9980;51.020;7.772;2022-09-03T11:40:03;25.60;59.50
19665;DHT22;9980;51.020;7.772;2022-09-03T11:42:45;25.60;58.70
19665;DHT22;9980;51.020;7.772;2022-09-03T11:45:22;25.60;59.00
19665;DHT22;9980;51.020;7.772;2022-09-03T11:48:01;25.60;59.10
19665;DHT22;9980;51.020;7.772;2022-09-03T11:50:51;25.60;58.80
19665;DHT22;9980;51.020;7.772;2022-09-03T11:53:25;25.60;58.70
19665;DHT22;9980;51.020;7.772;2022-09-03T11:58:34;25.60;59.10
19665;DHT22;9980;51.020;7.772;2022-09-03T12:01:09;25.60;58.70
19665;DHT22;9980;51.020;7.772;2022-09-03T12:03:49;25.60;58.70
19665;DHT22;9980;51.020;7.772;2022-09-03T12:06:36;25.60;58.80
19665;DHT22;9980;51.020;7.772;2022-09-03T12:09:24;25.70;58.90
19665;DHT22;9980;51.020;7.772;2022-09-03T12:18:39;25.80;59.60
19665;DHT22;9980;51.020;7.772;2022-09-03T12:21:09;25.90;59.70
19665;DHT22;9980;51.020;7.772;2022-09-03T12:23:50;25.90;59.70
19665;DHT22;9980;51.020;7.772;2022-09-03T12:26:25;25.90;59.30
19665;DHT22;9980;51.020;7.772;2022-09-03T12:28:57;26.00;59.10
19665;DHT22;9980;51.020;7.772;2022-09-03T12:31:28;26.00;58.60
19665;DHT22;9980;51.020;7.772;2022-09-03T12:34:09;26.10;58.70
19665;DHT22;9980;51.020;7.772;2022-09-03T12:36:44;26.10;58.10
19665;DHT22;9980;51.020;7.772;2022-09-03T12:39:21;26.20;58.50
19665;DHT22;9980;51.020;7.772;2022-09-03T12:42:22;26.20;58.90
19665;DHT22;9980;51.020;7.772;2022-09-03T12:44:52;26.20;58.30
19665;DHT22;9980;51.020;7.772;2022-09-03T12:47:23;26.20;58.30
19665;DHT22;9980;51.020;7.772;2022-09-03T12:50:12;26.30;58.10
19665;DHT22;9980;51.020;7.772;2022-09-03T12:52:49;26.30;58.00
19665;DHT22;9980;51.020;7.772;2022-09-03T12:55:41;26.40;59.20
19665;DHT22;9980;51.020;7.772;2022-09-03T12:58:22;26.50;58.80
19665;DHT22;9980;51.020;7.772;2022-09-03T13:01:09;26.60;58.50
19665;DHT22;9980;51.020;7.772;2022-09-03T13:03:49;26.70;58.30
19665;DHT22;9980;51.020;7.772;2022-09-03T13:06:48;26.80;58.40
19665;DHT22;9980;51.020;7.772;2022-09-03T13:09:27;26.80;58.90
19665;DHT22;9980;51.020;7.772;2022-09-03T13:11:56;26.90;59.10
19665;DHT22;9980;51.020;7.772;2022-09-03T13:14:26;27.00;59.20
19665;DHT22;9980;51.020;7.772;2022-09-03T13:17:19;27.10;59.50
19665;DHT22;9980;51.020;7.772;2022-09-03T13:23:30;27.40;59.30
19665;DHT22;9980;51.020;7.772;2022-09-03T13:26:39;27.60;58.70
19665;DHT22;9980;51.020;7.772;2022-09-03T13:32:42;27.80;58.10
19665;DHT22;9980;51.020;7.772;2022-09-03T13:41:05;28.20;57.80
19665;DHT22;9980;51.020;7.772;2022-09-03T13:43:56;28.30;58.00
19665;DHT22;9980;51.020;7.772;2022-09-03T13:46:45;28.50;57.40
19665;DHT22;9980;51.020;7.772;2022-09-03T13:49:33;28.60;57.80
19665;DHT22;9980;51.020;7.772;2022-09-03T13:52:37;28.70;57.80
19665;DHT22;9980;51.020;7.772;2022-09-03T13:55:49;28.80;57.30
19665;DHT22;9980;51.020;7.772;2022-09-03T13:58:43;28.90;56.90
19665;DHT22;9980;51.020;7.772;2022-09-03T14:01:37;29.00;56.70
19665;DHT22;9980;51.020;7.772;2022-09-03T14:07:41;29.20;56.00
19665;DHT22;9980;51.020;7.772;2022-09-03T14:12:48;29.30;56.50
19665;DHT22;9980;51.020;7.772;2022-09-03T14:15:35;29.30;55.20
19665;DHT22;9980;51.020;7.772;2022-09-03T14:18:51;29.40;55.40
19665;DHT22;9980;51.020;7.772;2022-09-03T14:21:38;29.40;54.70
19665;DHT22;9980;51.020;7.772;2022-09-03T14:27:28;29.40;55.00
19665;DHT22;9980;51.020;7.772;2022-09-03T14:30:06;29.40;54.20
19665;DHT22;9980;51.020;7.772;2022-09-03T14:33:19;29.40;54.00
19665;DHT22;9980;51.020;7.772;2022-09-03T14:36:10;29.40;54.00
19665;DHT22;9980;51.020;7.772;2022-09-03T14:41:57;29.40;53.00
19665;DHT22;9980;51.020;7.772;2022-09-03T14:50:40;29.20;52.60
19665;DHT22;9980;51.020;7.772;2022-09-03T14:54:10;29.10;52.40
19665;DHT22;9980;51.020;7.772;2022-09-03T14:57:11;28.90;52.80
19665;DHT22;9980;51.020;7.772;2022-09-03T15:03:02;28.70;53.30
19665;DHT22;9980;51.020;7.772;2022-09-03T15:06:19;28.60;53.20
19665;DHT22;9980;51.020;7.772;2022-09-03T15:12:21;28.50;54.20
19665;DHT22;9980;51.020;7.772;2022-09-03T15:14:57;28.40;54.00
19665;DHT22;9980;51.020;7.772;2022-09-03T15:17:49;28.30;54.30
19665;DHT22;9980;51.020;7.772;2022-09-03T15:23:30;28.10;54.40
19665;DHT22;9980;51.020;7.772;2022-09-03T15:29:35;28.00;54.70
19665;DHT22;9980;51.020;7.772;2022-09-03T15:32:44;27.90;55.30
19665;DHT22;9980;51.020;7.772;2022-09-03T15:38:57;27.80;56.00
19665;DHT22;9980;51.020;7.772;2022-09-03T15:44:45;27.80;55.10
19665;DHT22;9980;51.020;7.772;2022-09-03T15:50:28;27.70;55.40
19665;DHT22;9980;51.020;7.772;2022-09-03T15:53:03;27.70;55.30
19665;DHT22;9980;51.020;7.772;2022-09-03T15:56:02;27.70;55.30
19665;DHT22;9980;51.020;7.772;2022-09-03T15:58:41;27.60;55.90
19665;DHT22;9980;51.020;7.772;2022-09-03T16:01:36;27.60;55.80
19665;DHT22;9980;51.020;7.772;2022-09-03T16:06:56;27.50;56.20
19665;DHT22;9980;51.020;7.772;2022-09-03T16:09:35;27.50;56.50
19665;DHT22;9980;51.020;7.772;2022-09-03T16:13:00;27.40;56.80
19665;DHT22;9980;51.020;7.772;2022-09-03T16:15:59;27.40;56.80
19665;DHT22;9980;51.020;7.772;2022-09-03T16:18:42;27.40;56.70
19665;DHT22;9980;51.020;7.772;2022-09-03T16:21:36;27.30;56.40
19665;DHT22;9980;51.020;7.772;2022-09-03T16:24:17;27.30;57.00
19665;DHT22;9980;51.020;7.772;2022-09-03T16:27:25;27.20;57.00
19665;DHT22;9980;51.020;7.772;2022-09-03T16:32:55;27.10;57.50
19665;DHT22;9980;51.020;7.772;2022-09-03T16:38:33;27.00;57.70
19665;DHT22;9980;51.020;7.772;2022-09-03T16:41:23;26.90;58.50
19665;DHT22;9980;51.020;7.772;2022-09-03T16:47:44;26.80;58.40
19665;DHT22;9980;51.020;7.772;2022-09-03T16:53:26;26.70;58.00
19665;DHT22;9980;51.020;7.772;2022-09-03T17:14:37;26.00;58.70
19665;DHT22;9980;51.020;7.772;2022-09-03T17:20:14;25.90;58.70
19665;DHT22;9980;51.020;7.772;2022-09-03T17:26:06;25.70;59.00
19665;DHT22;9980;51.020;7.772;2022-09-03T17:32:49;25.50;59.50
19665;DHT22;9980;51.020;7.772;2022-09-03T17:47:11;25.20;60.10
19665;DHT22;9980;51.020;7.772;2022-09-03T17:50:17;25.10;60.60
19665;DHT22;9980;51.020;7.772;2022-09-03T17:52:56;25.10;60.80
19665;DHT22;9980;51.020;7.772;2022-09-03T17:55:41;25.00;60.80
19665;DHT22;9980;51.020;7.772;2022-09-03T17:58:40;25.00;61.30
19665;DHT22;9980;51.020;7.772;2022-09-03T18:01:22;24.90;61.80
19665;DHT22;9980;51.020;7.772;2022-09-03T18:03:59;24.90;62.10
19665;DHT22;9980;51.020;7.772;2022-09-03T18:12:55;24.70;62.80
19665;DHT22;9980;51.020;7.772;2022-09-03T18:18:11;24.60;63.10
19665;DHT22;9980;51.020;7.772;2022-09-03T18:20:51;24.50;63.60
19665;DHT22;9980;51.020;7.772;2022-09-03T18:30:28;24.30;65.70
19665;DHT22;9980;51.020;7.772;2022-09-03T18:33:18;24.20;65.50
19665;DHT22;9980;51.020;7.772;2022-09-03T18:36:12;24.10;65.90
19665;DHT22;9980;51.020;7.772;2022-09-03T18:39:11;24.00;66.00
19665;DHT22;9980;51.020;7.772;2022-09-03T18:49:34;23.70;67.70
19665;DHT22;9980;51.020;7.772;2022-09-03T18:52:48;23.60;67.80
19665;DHT22;9980;51.020;7.772;2022-09-03T18:56:54;23.50;68.70
19665;DHT22;9980;51.020;7.772;2022-09-03T19:09:55;22.90;69.60
19665;DHT22;9980;51.020;7.772;2022-09-03T19:13:12;22.70;70.20
19665;DHT22;9980;51.020;7.772;2022-09-03T19:19:52;22.40;70.40
19665;DHT22;9980;51.020;7.772;2022-09-03T19:22:55;22.30;70.60
19665;DHT22;9980;51.020;7.772;2022-09-03T19:25:41;22.10;70.40
19665;DHT22;9980;51.020;7.772;2022-09-03T19:28:30;22.00;71.00
19665;DHT22;9980;51.020;7.772;2022-09-03T19:41:07;21.60;72.20
19665;DHT22;9980;51.020;7.772;2022-09-03T19:47:38;21.40;73.00
19665;DHT22;9980;51.020;7.772;2022-09-03T19:50:40;21.30;73.20
19665;DHT22;9980;51.020;7.772;2022-09-03T19:53:29;21.20;73.60
19665;DHT22;9980;51.020;7.772;2022-09-03T19:56:26;21.10;73.60
19665;DHT22;9980;51.020;7.772;2022-09-03T19:59:18;21.00;73.60
19665;DHT22;9980;51.020;7.772;2022-09-03T20:02:07;20.90;73.80
19665;DHT22;9980;51.020;7.772;2022-09-03T20:04:59;20.80;73.80
19665;DHT22;9980;51.020;7.772;2022-09-03T20:07:49;20.70;74.80
19665;DHT22;9980;51.020;7.772;2022-09-03T20:10:36;20.60;75.20
19665;DHT22;9980;51.020;7.772;2022-09-03T20:13:11;20.50;74.90
19665;DHT22;9980;51.020;7.772;2022-09-03T20:19:03;20.40;75.30
19665;DHT22;9980;51.020;7.772;2022-09-03T20:21:41;20.30;75.70
19665;DHT22;9980;51.020;7.772;2022-09-03T20:30:09;20.10;76.10
19665;DHT22;9980;51.020;7.772;2022-09-03T20:37:14;19.90;76.10
19665;DHT22;9980;51.020;7.772;2022-09-03T20:45:30;19.60;76.60
19665;DHT22;9980;51.020;7.772;2022-09-03T20:48:23;19.60;77.10
19665;DHT22;9980;51.020;7.772;2022-09-03T20:51:08;19.50;77.10
19665;DHT22;9980;51.020;7.772;2022-09-03T20:54:05;19.40;77.80
19665;DHT22;9980;51.020;7.772;2022-09-03T21:06:05;19.20;78.30
19665;DHT22;9980;51.020;7.772;2022-09-03T21:15:00;18.90;79.20
19665;DHT22;9980;51.020;7.772;2022-09-03T21:20:40;18.80;80.00
19665;DHT22;9980;51.020;7.772;2022-09-03T21:24:00;18.70;79.50
19665;DHT22;9980;51.020;7.772;2022-09-03T21:26:33;18.70;79.60
19665;DHT22;9980;51.020;7.772;2022-09-03T21:29:22;18.60;79.90
19665;DHT22;9980;51.020;7.772;2022-09-03T21:32:01;18.50;80.30
19665;DHT22;9980;51.020;7.772;2022-09-03T21:35:11;18.50;80.30
19665;DHT22;9980;51.020;7.772;2022-09-03T21:37:51;18.40;80.70
19665;DHT22;9980;51.020;7.772;2022-09-03T21:40:27;18.30;80.60
19665;DHT22;9980;51.020;7.772;2022-09-03T21:43:08;18.30;80.80
19665;DHT22;9980;51.020;7.772;2022-09-03T21:46:08;18.30;81.00
19665;DHT22;9980;51.020;7.772;2022-09-03T21:48:51;18.20;81.10
19665;DHT22;9980;51.020;7.772;2022-09-03T21:54:29;18.20;81.30
19665;DHT22;9980;51.020;7.772;2022-09-03T22:00:12;18.00;82.00
19665;DHT22;9980;51.020;7.772;2022-09-03T22:02:46;18.00;81.70
19665;DHT22;9980;51.020;7.772;2022-09-03T22:05:15;17.90;81.80